sensor_id;sensor_type;location;lat;lon;timestamp;temperature;humidity
75091;DHT22;63674;48.048;8.306;2023-04-03T00:01:24;2.30;99.90
75091;DHT22;63674;48.048;8.306;2023-04-03T00:03:53;2.40;99.90
75091;DHT22;63674;48.048;8.306;2023-04-03T00:06:23;2.40;99.90
75091;DHT22;63674;48.048;8.306;2023-04-03T00:08:52;2.40;99.90
75091;DHT22;63674;48.048;8.306;2023-04-03T00:11:21;2.40;99.90
75091;DHT22;63674;48.048;8.306;2023-04-03T00:13:50;2.40;99.90
75091;DHT22;63674;48.048;8.306;2023-04-03T00:16:19;2.50;99.90
75091;DHT22;63674;48.048;8.306;2023-04-03T00:18:48;2.40;99.90
75091;DHT22;63674;48.048;8.306;2023-04-03T00:21:16;2.40;99.90
75091;DHT22;63674;48.048;8.306;2023-04-03T00:23:45;2.30;99.90
75091;DHT22;63674;48.048;8.306;2023-04-03T00:26:13;2.30;99.90
75091;DHT22;63674;48.048;8.306;2023-04-03T00:28:42;2.20;99.90
75091;DHT22;63674;48.048;8.306;2023-04-03T00:31:11;2.20;99.90
75091;DHT22;63674;48.048;8.306;2023-04-03T00:33:44;2.20;99.90
75091;DHT22;63674;48.048;8.306;2023-04-03T00:36:12;2.10;99.90
75091;DHT22;63674;48.048;8.306;2023-04-03T00:38:41;2.00;99.90
75091;DHT22;63674;48.048;8.306;2023-04-03T00:41:10;2.00;99.90
75091;DHT22;63674;48.048;8.306;2023-04-03T00:43:39;2.00;99.90
75091;DHT22;63674;48.048;8.306;2023-04-03T00:46:08;2.10;99.90
75091;DHT22;63674;48.048;8.306;2023-04-03T00:48:39;2.10;99.90
75091;DHT22;63674;48.048;8.306;2023-04-03T00:51:13;2.10;99.90
75091;DHT22;63674;48.048;8.306;2023-04-03T00:53:46;2.20;99.90
75091;DHT22;63674;48.048;8.306;2023-04-03T00:56:19;2.20;99.90
75091;DHT22;63674;48.048;8.306;2023-04-03T00:58:53;2.10;99.90
75091;DHT22;63674;48.048;8.306;2023-04-03T01:01:26;2.10;99.90
75091;DHT22;63674;48.048;8.306;2023-04-03T01:03:56;2.10;99.90
75091;DHT22;63674;48.048;8.306;2023-04-03T01:06:29;2.10;99.90
75091;DHT22;63674;48.048;8.306;2023-04-03T01:09:18;2.10;99.90
75091;DHT22;63674;48.048;8.306;2023-04-03T01:11:46;2.10;99.90
75091;DHT22;63674;48.048;8.306;2023-04-03T01:14:15;2.00;99.90
75091;DHT22;63674;48.048;8.306;2023-04-03T01:16:52;2.00;99.90
75091;DHT22;63674;48.048;8.306;2023-04-03T01:19:22;1.90;99.90
75091;DHT22;63674;48.048;8.306;2023-04-03T01:22:02;1.90;99.90
75091;DHT22;63674;48.048;8.306;2023-04-03T01:24:38;2.00;99.90
75091;DHT22;63674;48.048;8.306;2023-04-03T01:27:08;2.00;99.90
75091;DHT22;63674;48.048;8.306;2023-04-03T01:29:40;2.00;99.90
75091;DHT22;63674;48.048;8.306;2023-04-03T01:32:11;1.90;99.90
75091;DHT22;63674;48.048;8.306;2023-04-03T01:34:41;1.90;99.90
75091;DHT22;63674;48.048;8.306;2023-04-03T01:37:09;1.90;99.90
75091;DHT22;63674;48.048;8.306;2023-04-03T01:39:38;1.90;99.90
75091;DHT22;63674;48.048;8.306;2023-04-03T01:42:06;2.00;99.90
75091;DHT22;63674;48.048;8.306;2023-04-03T01:44:35;2.00;99.90
75091;DHT22;63674;48.048;8.306;2023-04-03T01:47:05;2.00;99.90
75091;DHT22;63674;48.048;8.306;2023-04-03T01:49:35;1.90;99.90
75091;DHT22;63674;48.048;8.306;2023-04-03T01:52:04;1.90;99.90
75091;DHT22;63674;48.048;8.306;2023-04-03T01:54:32;1.90;99.90
75091;DHT22;63674;48.048;8.306;2023-04-03T01:57:01;1.90;99.90
75091;DHT22;63674;48.048;8.306;2023-04-03T01:59:30;1.90;99.90
75091;DHT22;63674;48.048;8.306;2023-04-03T02:01:59;1.90;99.90
75091;DHT22;63674;48.048;8.306;2023-04-03T02:04:27;1.80;99.90
75091;DHT22;63674;48.048;8.306;2023-04-03T02:06:58;1.90;99.90
75091;DHT22;63674;48.048;8.306;2023-04-03T02:09:26;1.90;99.90
75091;DHT22;63674;48.048;8.306;2023-04-03T02:11:55;1.90;99.90
75091;DHT22;63674;48.048;8.306;2023-04-03T02:14:23;1.80;99.90
75091;DHT22;63674;48.048;8.306;2023-04-03T02:16:54;1.80;99.90
75091;DHT22;63674;48.048;8.306;2023-04-03T02:19:23;1.90;99.90
75091;DHT22;63674;48.048;8.306;2023-04-03T02:21:51;2.00;99.90
75091;DHT22;63674;48.048;8.306;2023-04-03T02:24:22;2.00;99.90
75091;DHT22;63674;48.048;8.306;2023-04-03T02:26:51;2.00;99.90
75091;DHT22;63674;48.048;8.306;2023-04-03T02:29:19;2.10;99.90
75091;DHT22;63674;48.048;8.306;2023-04-03T02:31:48;2.10;99.90
75091;DHT22;63674;48.048;8.306;2023-04-03T02:34:17;2.10;99.90
75091;DHT22;63674;48.048;8.306;2023-04-03T02:36:46;2.00;99.90
75091;DHT22;63674;48.048;8.306;2023-04-03T02:39:14;1.90;99.90
75091;DHT22;63674;48.048;8.306;2023-04-03T02:41:44;1.90;99.90
75091;DHT22;63674;48.048;8.306;2023-04-03T02:44:13;1.80;99.90
75091;DHT22;63674;48.048;8.306;2023-04-03T02:46:42;1.80;99.90
75091;DHT22;63674;48.048;8.306;2023-04-03T02:49:10;1.90;99.90
75091;DHT22;63674;48.048;8.306;2023-04-03T02:51:39;1.90;99.90
75091;DHT22;63674;48.048;8.306;2023-04-03T02:54:08;1.80;99.90
75091;DHT22;63674;48.048;8.306;2023-04-03T02:56:36;1.80;99.90
75091;DHT22;63674;48.048;8.306;2023-04-03T02:59:06;1.80;99.90
75091;DHT22;63674;48.048;8.306;2023-04-03T03:01:35;1.90;99.90
75091;DHT22;63674;48.048;8.306;2023-04-03T03:04:04;1.90;99.90
75091;DHT22;63674;48.048;8.306;2023-04-03T03:06:32;1.90;99.90
75091;DHT22;63674;48.048;8.306;2023-04-03T03:09:01;1.80;99.90
75091;DHT22;63674;48.048;8.306;2023-04-03T03:11:30;1.70;99.90
75091;DHT22;63674;48.048;8.306;2023-04-03T03:13:59;1.70;99.90
75091;DHT22;63674;48.048;8.306;2023-04-03T03:16:29;1.80;99.90
75091;DHT22;63674;48.048;8.306;2023-04-03T03:18:58;1.80;99.90
75091;DHT22;63674;48.048;8.306;2023-04-03T03:21:30;1.80;99.90
75091;DHT22;63674;48.048;8.306;2023-04-03T03:23:58;1.80;99.90
75091;DHT22;63674;48.048;8.306;2023-04-03T03:26:27;1.80;99.90
75091;DHT22;63674;48.048;8.306;2023-04-03T03:28:56;1.80;99.90
75091;DHT22;63674;48.048;8.306;2023-04-03T03:31:24;1.80;99.90
75091;DHT22;63674;48.048;8.306;2023-04-03T03:33:55;1.60;99.90
75091;DHT22;63674;48.048;8.306;2023-04-03T03:36:23;1.50;99.90
75091;DHT22;63674;48.048;8.306;2023-04-03T03:38:52;1.60;99.90
75091;DHT22;63674;48.048;8.306;2023-04-03T03:41:20;1.70;99.90
75091;DHT22;63674;48.048;8.306;2023-04-03T03:43:49;1.60;99.90
75091;DHT22;63674;48.048;8.306;2023-04-03T03:46:18;1.60;99.90
75091;DHT22;63674;48.048;8.306;2023-04-03T03:48:46;1.60;99.90
75091;DHT22;63674;48.048;8.306;2023-04-03T03:51:16;1.70;99.90
75091;DHT22;63674;48.048;8.306;2023-04-03T03:53:45;1.80;99.90
75091;DHT22;63674;48.048;8.306;2023-04-03T03:56:13;1.80;99.90
75091;DHT22;63674;48.048;8.306;2023-04-03T03:58:42;1.80;99.90
75091;DHT22;63674;48.048;8.306;2023-04-03T04:01:10;1.90;99.90
75091;DHT22;63674;48.048;8.306;2023-04-03T04:03:38;1.70;99.90
75091;DHT22;63674;48.048;8.306;2023-04-03T04:06:07;1.70;99.90
75091;DHT22;63674;48.048;8.306;2023-04-03T04:08:37;1.70;99.90
75091;DHT22;63674;48.048;8.306;2023-04-03T04:11:06;1.60;99.90
75091;DHT22;63674;48.048;8.306;2023-04-03T04:13:35;1.60;99.90
75091;DHT22;63674;48.048;8.306;2023-04-03T04:16:04;1.60;99.90
75091;DHT22;63674;48.048;8.306;2023-04-03T04:18:33;1.60;99.90
75091;DHT22;63674;48.048;8.306;2023-04-03T04:21:01;1.60;99.90
75091;DHT22;63674;48.048;8.306;2023-04-03T04:23:30;1.50;99.90
75091;DHT22;63674;48.048;8.306;2023-04-03T04:26:00;1.50;99.90
75091;DHT22;63674;48.048;8.306;2023-04-03T04:28:29;1.60;99.90
75091;DHT22;63674;48.048;8.306;2023-04-03T04:30:57;1.60;99.90
75091;DHT22;63674;48.048;8.306;2023-04-03T04:33:26;1.60;99.90
75091;DHT22;63674;48.048;8.306;2023-04-03T04:35:54;1.60;99.90
75091;DHT22;63674;48.048;8.306;2023-04-03T04:38:23;1.60;99.90
75091;DHT22;63674;48.048;8.306;2023-04-03T04:40:52;1.60;99.90
75091;DHT22;63674;48.048;8.306;2023-04-03T04:43:22;1.60;99.90
75091;DHT22;63674;48.048;8.306;2023-04-03T04:46:00;1.60;99.90
75091;DHT22;63674;48.048;8.306;2023-04-03T04:48:30;1.60;99.90
75091;DHT22;63674;48.048;8.306;2023-04-03T04:50:58;1.50;99.90
75091;DHT22;63674;48.048;8.306;2023-04-03T04:53:27;1.40;99.90
75091;DHT22;63674;48.048;8.306;2023-04-03T04:55:56;1.50;99.90
75091;DHT22;63674;48.048;8.306;2023-04-03T04:58:26;1.50;99.90
75091;DHT22;63674;48.048;8.306;2023-04-03T05:00:58;1.50;99.90
75091;DHT22;63674;48.048;8.306;2023-04-03T05:03:31;1.50;99.90
75091;DHT22;63674;48.048;8.306;2023-04-03T05:06:00;1.50;99.90
75091;DHT22;63674;48.048;8.306;2023-04-03T05:08:29;1.50;99.90
75091;DHT22;63674;48.048;8.306;2023-04-03T05:10:57;1.40;99.90
75091;DHT22;63674;48.048;8.306;2023-04-03T05:13:27;1.50;99.90
75091;DHT22;63674;48.048;8.306;2023-04-03T05:15:56;1.50;99.90
75091;DHT22;63674;48.048;8.306;2023-04-03T05:18:25;1.50;99.90
75091;DHT22;63674;48.048;8.306;2023-04-03T05:20:53;1.60;99.90
75091;DHT22;63674;48.048;8.306;2023-04-03T05:23:22;1.60;99.90
75091;DHT22;63674;48.048;8.306;2023-04-03T05:25:51;1.70;99.90
75091;DHT22;63674;48.048;8.306;2023-04-03T05:28:19;1.50;99.90
75091;DHT22;63674;48.048;8.306;2023-04-03T05:30:54;1.30;99.90
75091;DHT22;63674;48.048;8.306;2023-04-03T05:33:23;1.30;99.90
75091;DHT22;63674;48.048;8.306;2023-04-03T05:35:53;1.20;99.90
75091;DHT22;63674;48.048;8.306;2023-04-03T05:38:22;1.10;99.90
75091;DHT22;63674;48.048;8.306;2023-04-03T05:40:51;1.20;99.90
75091;DHT22;63674;48.048;8.306;2023-04-03T05:43:20;1.20;99.90
75091;DHT22;63674;48.048;8.306;2023-04-03T05:45:49;1.20;99.90
75091;DHT22;63674;48.048;8.306;2023-04-03T05:48:19;1.20;99.90
75091;DHT22;63674;48.048;8.306;2023-04-03T05:50:47;1.20;99.90
75091;DHT22;63674;48.048;8.306;2023-04-03T05:53:20;1.30;99.90
75091;DHT22;63674;48.048;8.306;2023-04-03T05:55:50;1.30;99.90
75091;DHT22;63674;48.048;8.306;2023-04-03T05:58:18;1.20;99.90
75091;DHT22;63674;48.048;8.306;2023-04-03T06:00:46;1.20;99.90
75091;DHT22;63674;48.048;8.306;2023-04-03T06:03:15;1.20;99.90
75091;DHT22;63674;48.048;8.306;2023-04-03T06:05:45;1.20;99.90
75091;DHT22;63674;48.048;8.306;2023-04-03T06:08:14;1.20;99.90
75091;DHT22;63674;48.048;8.306;2023-04-03T06:10:42;1.30;99.90
75091;DHT22;63674;48.048;8.306;2023-04-03T06:13:11;1.20;99.90
75091;DHT22;63674;48.048;8.306;2023-04-03T06:15:40;1.30;99.90
75091;DHT22;63674;48.048;8.306;2023-04-03T06:18:09;1.20;99.90
75091;DHT22;63674;48.048;8.306;2023-04-03T06:20:37;1.40;99.90
75091;DHT22;63674;48.048;8.306;2023-04-03T06:23:07;1.30;99.90
75091;DHT22;63674;48.048;8.306;2023-04-03T06:25:37;1.30;99.90
75091;DHT22;63674;48.048;8.306;2023-04-03T06:28:05;1.30;99.90
75091;DHT22;63674;48.048;8.306;2023-04-03T06:30:36;1.20;99.90
75091;DHT22;63674;48.048;8.306;2023-04-03T06:33:05;1.20;99.90
75091;DHT22;63674;48.048;8.306;2023-04-03T06:35:34;1.30;99.90
75091;DHT22;63674;48.048;8.306;2023-04-03T06:38:04;1.10;99.90
75091;DHT22;63674;48.048;8.306;2023-04-03T06:40:38;0.90;99.90
75091;DHT22;63674;48.048;8.306;2023-04-03T06:43:07;0.90;99.90
75091;DHT22;63674;48.048;8.306;2023-04-03T06:45:35;0.90;99.90
75091;DHT22;63674;48.048;8.306;2023-04-03T06:48:05;0.90;99.90
75091;DHT22;63674;48.048;8.306;2023-04-03T06:50:34;1.00;99.90
75091;DHT22;63674;48.048;8.306;2023-04-03T06:53:02;1.00;99.90
75091;DHT22;63674;48.048;8.306;2023-04-03T06:55:31;1.00;99.90
75091;DHT22;63674;48.048;8.306;2023-04-03T06:58:01;1.10;99.90
75091;DHT22;63674;48.048;8.306;2023-04-03T07:00:30;1.10;99.90
75091;DHT22;63674;48.048;8.306;2023-04-03T07:02:59;1.10;99.90
75091;DHT22;63674;48.048;8.306;2023-04-03T07:05:28;1.10;99.90
75091;DHT22;63674;48.048;8.306;2023-04-03T07:07:58;1.10;99.90
75091;DHT22;63674;48.048;8.306;2023-04-03T07:10:26;1.10;99.90
75091;DHT22;63674;48.048;8.306;2023-04-03T07:12:55;1.00;99.90
75091;DHT22;63674;48.048;8.306;2023-04-03T07:15:24;1.00;99.90
75091;DHT22;63674;48.048;8.306;2023-04-03T07:17:53;1.10;99.90
75091;DHT22;63674;48.048;8.306;2023-04-03T07:20:22;1.00;99.90
75091;DHT22;63674;48.048;8.306;2023-04-03T07:22:51;1.00;99.90
75091;DHT22;63674;48.048;8.306;2023-04-03T07:25:20;1.00;99.90
75091;DHT22;63674;48.048;8.306;2023-04-03T07:27:48;1.10;99.90
75091;DHT22;63674;48.048;8.306;2023-04-03T07:30:18;1.00;99.90
75091;DHT22;63674;48.048;8.306;2023-04-03T07:32:48;1.10;99.90
75091;DHT22;63674;48.048;8.306;2023-04-03T07:35:17;1.10;99.90
75091;DHT22;63674;48.048;8.306;2023-04-03T07:37:46;1.10;99.90
75091;DHT22;63674;48.048;8.306;2023-04-03T07:40:16;1.10;99.90
75091;DHT22;63674;48.048;8.306;2023-04-03T07:42:46;1.20;99.90
75091;DHT22;63674;48.048;8.306;2023-04-03T07:45:15;1.10;99.90
75091;DHT22;63674;48.048;8.306;2023-04-03T07:47:44;1.00;99.90
75091;DHT22;63674;48.048;8.306;2023-04-03T07:50:14;1.00;99.90
75091;DHT22;63674;48.048;8.306;2023-04-03T07:52:44;1.10;99.90
75091;DHT22;63674;48.048;8.306;2023-04-03T07:55:13;1.10;99.90
75091;DHT22;63674;48.048;8.306;2023-04-03T07:58:02;1.00;99.90
75091;DHT22;63674;48.048;8.306;2023-04-03T08:00:31;1.10;99.90
75091;DHT22;63674;48.048;8.306;2023-04-03T08:03:00;1.20;99.90
75091;DHT22;63674;48.048;8.306;2023-04-03T08:05:30;1.20;99.90
75091;DHT22;63674;48.048;8.306;2023-04-03T08:07:59;1.30;99.90
75091;DHT22;63674;48.048;8.306;2023-04-03T08:10:30;1.20;99.90
75091;DHT22;63674;48.048;8.306;2023-04-03T08:12:58;1.30;99.90
75091;DHT22;63674;48.048;8.306;2023-04-03T08:15:27;1.40;99.90
75091;DHT22;63674;48.048;8.306;2023-04-03T08:17:55;1.40;99.90
75091;DHT22;63674;48.048;8.306;2023-04-03T08:20:24;1.40;99.90
75091;DHT22;63674;48.048;8.306;2023-04-03T08:22:55;1.30;99.90
75091;DHT22;63674;48.048;8.306;2023-04-03T08:25:23;1.40;99.90
75091;DHT22;63674;48.048;8.306;2023-04-03T08:27:52;1.40;99.90
75091;DHT22;63674;48.048;8.306;2023-04-03T08:30:20;1.50;99.90
75091;DHT22;63674;48.048;8.306;2023-04-03T08:32:49;1.60;99.90
75091;DHT22;63674;48.048;8.306;2023-04-03T08:35:17;1.70;99.90
75091;DHT22;63674;48.048;8.306;2023-04-03T08:37:47;1.80;99.90
75091;DHT22;63674;48.048;8.306;2023-04-03T08:40:17;1.70;99.90
75091;DHT22;63674;48.048;8.306;2023-04-03T08:42:54;1.90;99.90
75091;DHT22;63674;48.048;8.306;2023-04-03T08:45:41;1.90;99.90
75091;DHT22;63674;48.048;8.306;2023-04-03T08:48:15;1.80;99.90
75091;DHT22;63674;48.048;8.306;2023-04-03T08:50:48;1.80;99.90
75091;DHT22;63674;48.048;8.306;2023-04-03T08:53:21;2.00;99.90
75091;DHT22;63674;48.048;8.306;2023-04-03T08:55:53;2.00;99.90
75091;DHT22;63674;48.048;8.306;2023-04-03T08:58:25;2.30;99.90
75091;DHT22;63674;48.048;8.306;2023-04-03T09:00:58;2.30;99.90
75091;DHT22;63674;48.048;8.306;2023-04-03T09:03:30;2.10;99.90
75091;DHT22;63674;48.048;8.306;2023-04-03T09:06:04;2.30;99.90
75091;DHT22;63674;48.048;8.306;2023-04-03T09:08:39;2.40;99.90
75091;DHT22;63674;48.048;8.306;2023-04-03T09:11:18;2.50;99.90
75091;DHT22;63674;48.048;8.306;2023-04-03T09:13:54;2.50;99.90
75091;DHT22;63674;48.048;8.306;2023-04-03T09:16:36;2.40;99.90
75091;DHT22;63674;48.048;8.306;2023-04-03T09:19:18;2.30;99.90
75091;DHT22;63674;48.048;8.306;2023-04-03T09:21:56;2.20;99.90
75091;DHT22;63674;48.048;8.306;2023-04-03T09:24:25;2.30;99.90
75091;DHT22;63674;48.048;8.306;2023-04-03T09:26:58;2.30;99.90
75091;DHT22;63674;48.048;8.306;2023-04-03T09:29:29;2.40;99.90
75091;DHT22;63674;48.048;8.306;2023-04-03T09:32:01;2.60;99.90
75091;DHT22;63674;48.048;8.306;2023-04-03T09:34:32;2.50;99.90
75091;DHT22;63674;48.048;8.306;2023-04-03T09:37:05;2.60;99.90
75091;DHT22;63674;48.048;8.306;2023-04-03T09:39:49;2.50;99.90
75091;DHT22;63674;48.048;8.306;2023-04-03T09:42:23;2.60;99.90
75091;DHT22;63674;48.048;8.306;2023-04-03T09:44:54;2.50;99.90
75091;DHT22;63674;48.048;8.306;2023-04-03T09:47:26;2.60;99.90
75091;DHT22;63674;48.048;8.306;2023-04-03T09:50:17;2.50;99.90
75091;DHT22;63674;48.048;8.306;2023-04-03T09:52:49;2.50;99.90
75091;DHT22;63674;48.048;8.306;2023-04-03T09:55:21;2.60;99.90
75091;DHT22;63674;48.048;8.306;2023-04-03T09:57:57;2.60;99.90
75091;DHT22;63674;48.048;8.306;2023-04-03T10:00:31;2.60;99.90
75091;DHT22;63674;48.048;8.306;2023-04-03T10:03:03;2.50;99.90
75091;DHT22;63674;48.048;8.306;2023-04-03T10:05:35;2.50;99.90
75091;DHT22;63674;48.048;8.306;2023-04-03T10:08:14;2.30;99.90
75091;DHT22;63674;48.048;8.306;2023-04-03T10:11:06;2.40;99.90
75091;DHT22;63674;48.048;8.306;2023-04-03T10:13:50;2.40;99.90
75091;DHT22;63674;48.048;8.306;2023-04-03T10:16:22;2.50;99.90
75091;DHT22;63674;48.048;8.306;2023-04-03T10:19:06;2.60;99.90
75091;DHT22;63674;48.048;8.306;2023-04-03T10:21:57;2.70;99.90
75091;DHT22;63674;48.048;8.306;2023-04-03T10:24:33;2.70;99.90
75091;DHT22;63674;48.048;8.306;2023-04-03T10:27:08;2.90;99.90
75091;DHT22;63674;48.048;8.306;2023-04-03T10:29:48;3.00;99.90
75091;DHT22;63674;48.048;8.306;2023-04-03T10:32:36;3.00;99.90
75091;DHT22;63674;48.048;8.306;2023-04-03T10:35:18;3.00;99.90
75091;DHT22;63674;48.048;8.306;2023-04-03T10:38:00;3.00;99.90
75091;DHT22;63674;48.048;8.306;2023-04-03T10:40:35;3.10;99.90
75091;DHT22;63674;48.048;8.306;2023-04-03T10:43:18;3.10;99.90
75091;DHT22;63674;48.048;8.306;2023-04-03T10:45:57;3.10;99.90
75091;DHT22;63674;48.048;8.306;2023-04-03T10:48:43;3.00;99.90
75091;DHT22;63674;48.048;8.306;2023-04-03T10:51:25;3.00;99.90
75091;DHT22;63674;48.048;8.306;2023-04-03T10:54:03;3.30;99.90
75091;DHT22;63674;48.048;8.306;2023-04-03T10:56:38;3.60;99.90
75091;DHT22;63674;48.048;8.306;2023-04-03T10:59:16;3.70;99.90
75091;DHT22;63674;48.048;8.306;2023-04-03T11:01:52;3.70;99.90
75091;DHT22;63674;48.048;8.306;2023-04-03T11:04:25;3.50;99.90
75091;DHT22;63674;48.048;8.306;2023-04-03T11:07:01;3.50;99.90
75091;DHT22;63674;48.048;8.306;2023-04-03T11:09:33;3.50;99.90
75091;DHT22;63674;48.048;8.306;2023-04-03T11:12:15;3.30;99.90
75091;DHT22;63674;48.048;8.306;2023-04-03T11:14:47;2.90;99.90
75091;DHT22;63674;48.048;8.306;2023-04-03T11:17:28;3.00;99.90
75091;DHT22;63674;48.048;8.306;2023-04-03T11:20:06;3.20;99.90
75091;DHT22;63674;48.048;8.306;2023-04-03T11:22:41;3.10;99.90
75091;DHT22;63674;48.048;8.306;2023-04-03T11:25:17;3.10;99.90
75091;DHT22;63674;48.048;8.306;2023-04-03T11:27:53;3.30;99.90
75091;DHT22;63674;48.048;8.306;2023-04-03T11:30:28;3.30;99.90
75091;DHT22;63674;48.048;8.306;2023-04-03T11:33:21;3.00;99.90
75091;DHT22;63674;48.048;8.306;2023-04-03T11:35:57;2.90;99.90
75091;DHT22;63674;48.048;8.306;2023-04-03T11:38:38;3.00;99.90
75091;DHT22;63674;48.048;8.306;2023-04-03T11:41:11;3.20;99.90
75091;DHT22;63674;48.048;8.306;2023-04-03T11:43:43;3.40;99.90
75091;DHT22;63674;48.048;8.306;2023-04-03T11:46:50;3.40;99.90
75091;DHT22;63674;48.048;8.306;2023-04-03T11:53:03;3.60;99.90
75091;DHT22;63674;48.048;8.306;2023-04-03T11:55:57;3.70;99.90
75091;DHT22;63674;48.048;8.306;2023-04-03T11:58:31;3.60;99.90
75091;DHT22;63674;48.048;8.306;2023-04-03T12:01:05;3.70;99.90
75091;DHT22;63674;48.048;8.306;2023-04-03T12:04:07;3.60;99.90
75091;DHT22;63674;48.048;8.306;2023-04-03T12:06:51;3.60;99.90
75091;DHT22;63674;48.048;8.306;2023-04-03T12:09:32;3.60;99.90
75091;DHT22;63674;48.048;8.306;2023-04-03T12:15:38;3.80;99.90
75091;DHT22;63674;48.048;8.306;2023-04-03T12:18:43;4.00;99.90
75091;DHT22;63674;48.048;8.306;2023-04-03T12:21:13;3.90;99.90
75091;DHT22;63674;48.048;8.306;2023-04-03T12:24:04;3.90;99.90
75091;DHT22;63674;48.048;8.306;2023-04-03T12:27:03;3.70;99.90
75091;DHT22;63674;48.048;8.306;2023-04-03T12:29:42;3.80;99.90
75091;DHT22;63674;48.048;8.306;2023-04-03T12:32:24;3.80;99.90
75091;DHT22;63674;48.048;8.306;2023-04-03T12:35:16;3.80;99.90
75091;DHT22;63674;48.048;8.306;2023-04-03T12:38:00;3.70;99.90
75091;DHT22;63674;48.048;8.306;2023-04-03T12:41:30;3.70;99.90
75091;DHT22;63674;48.048;8.306;2023-04-03T12:44:35;3.80;99.90
75091;DHT22;63674;48.048;8.306;2023-04-03T12:47:29;3.80;99.90
75091;DHT22;63674;48.048;8.306;2023-04-03T12:50:02;3.80;99.90
75091;DHT22;63674;48.048;8.306;2023-04-03T12:52:39;3.80;99.90
75091;DHT22;63674;48.048;8.306;2023-04-03T12:55:15;3.80;99.90
75091;DHT22;63674;48.048;8.306;2023-04-03T12:57:47;3.80;99.90
75091;DHT22;63674;48.048;8.306;2023-04-03T13:00:34;3.70;99.90
75091;DHT22;63674;48.048;8.306;2023-04-03T13:03:07;3.70;99.90
75091;DHT22;63674;48.048;8.306;2023-04-03T13:05:50;3.50;99.90
75091;DHT22;63674;48.048;8.306;2023-04-03T13:08:19;3.30;99.90
75091;DHT22;63674;48.048;8.306;2023-04-03T13:10:53;3.40;99.90
75091;DHT22;63674;48.048;8.306;2023-04-03T13:13:25;3.60;99.90
75091;DHT22;63674;48.048;8.306;2023-04-03T13:15:54;3.60;99.90
75091;DHT22;63674;48.048;8.306;2023-04-03T13:18:24;3.70;99.90
75091;DHT22;63674;48.048;8.306;2023-04-03T13:21:03;3.80;99.90
75091;DHT22;63674;48.048;8.306;2023-04-03T13:23:36;3.90;99.90
75091;DHT22;63674;48.048;8.306;2023-04-03T13:26:07;4.00;99.90
75091;DHT22;63674;48.048;8.306;2023-04-03T13:28:39;4.10;99.90
75091;DHT22;63674;48.048;8.306;2023-04-03T13:31:19;4.10;99.90
75091;DHT22;63674;48.048;8.306;2023-04-03T13:33:56;4.00;99.90
75091;DHT22;63674;48.048;8.306;2023-04-03T13:36:30;3.90;99.90
75091;DHT22;63674;48.048;8.306;2023-04-03T13:39:03;3.90;99.90
75091;DHT22;63674;48.048;8.306;2023-04-03T13:41:35;3.60;99.90
75091;DHT22;63674;48.048;8.306;2023-04-03T13:44:29;3.70;99.90
75091;DHT22;63674;48.048;8.306;2023-04-03T13:47:14;3.80;99.90
75091;DHT22;63674;48.048;8.306;2023-04-03T13:49:45;3.80;99.90
75091;DHT22;63674;48.048;8.306;2023-04-03T13:52:28;3.70;99.90
75091;DHT22;63674;48.048;8.306;2023-04-03T13:55:01;3.60;99.90
75091;DHT22;63674;48.048;8.306;2023-04-03T13:57:49;3.40;99.90
75091;DHT22;63674;48.048;8.306;2023-04-03T14:00:27;3.30;99.90
75091;DHT22;63674;48.048;8.306;2023-04-03T14:02:58;3.50;99.90
75091;DHT22;63674;48.048;8.306;2023-04-03T14:05:27;3.50;99.90
75091;DHT22;63674;48.048;8.306;2023-04-03T14:07:55;3.60;99.90
75091;DHT22;63674;48.048;8.306;2023-04-03T14:10:24;3.70;99.90
75091;DHT22;63674;48.048;8.306;2023-04-03T14:12:52;3.70;99.90
75091;DHT22;63674;48.048;8.306;2023-04-03T14:15:26;3.80;99.90
75091;DHT22;63674;48.048;8.306;2023-04-03T14:17:55;3.80;99.90
75091;DHT22;63674;48.048;8.306;2023-04-03T14:20:27;3.80;99.90
75091;DHT22;63674;48.048;8.306;2023-04-03T14:22:55;3.90;99.90
75091;DHT22;63674;48.048;8.306;2023-04-03T14:25:25;3.90;99.90
75091;DHT22;63674;48.048;8.306;2023-04-03T14:27:54;3.90;99.90
75091;DHT22;63674;48.048;8.306;2023-04-03T14:30:27;3.80;99.90
75091;DHT22;63674;48.048;8.306;2023-04-03T14:32:57;3.70;99.90
75091;DHT22;63674;48.048;8.306;2023-04-03T14:35:27;3.50;99.90
75091;DHT22;63674;48.048;8.306;2023-04-03T14:37:56;3.50;99.90
75091;DHT22;63674;48.048;8.306;2023-04-03T14:40:26;3.60;99.90
75091;DHT22;63674;48.048;8.306;2023-04-03T14:42:55;3.50;99.90
75091;DHT22;63674;48.048;8.306;2023-04-03T14:45:25;3.40;99.90
75091;DHT22;63674;48.048;8.306;2023-04-03T14:47:56;3.40;99.90
75091;DHT22;63674;48.048;8.306;2023-04-03T14:50:26;3.50;99.90
75091;DHT22;63674;48.048;8.306;2023-04-03T14:52:57;3.60;99.90
75091;DHT22;63674;48.048;8.306;2023-04-03T14:55:27;3.60;99.90
75091;DHT22;63674;48.048;8.306;2023-04-03T14:57:55;3.60;99.90
75091;DHT22;63674;48.048;8.306;2023-04-03T15:00:26;3.50;99.90
75091;DHT22;63674;48.048;8.306;2023-04-03T15:02:54;3.40;99.90
75091;DHT22;63674;48.048;8.306;2023-04-03T15:05:23;3.40;99.90
75091;DHT22;63674;48.048;8.306;2023-04-03T15:07:54;3.50;99.90
75091;DHT22;63674;48.048;8.306;2023-04-03T15:10:29;3.40;99.90
75091;DHT22;63674;48.048;8.306;2023-04-03T15:12:58;3.50;99.90
75091;DHT22;63674;48.048;8.306;2023-04-03T15:15:30;3.50;99.90
75091;DHT22;63674;48.048;8.306;2023-04-03T15:17:59;3.60;99.90
75091;DHT22;63674;48.048;8.306;2023-04-03T15:20:28;3.60;99.90
75091;DHT22;63674;48.048;8.306;2023-04-03T15:23:00;3.60;99.90
75091;DHT22;63674;48.048;8.306;2023-04-03T15:25:29;3.50;99.90
75091;DHT22;63674;48.048;8.306;2023-04-03T15:27:59;3.40;99.90
75091;DHT22;63674;48.048;8.306;2023-04-03T15:30:29;3.30;99.90
75091;DHT22;63674;48.048;8.306;2023-04-03T15:32:58;3.20;99.90
75091;DHT22;63674;48.048;8.306;2023-04-03T15:35:26;3.10;99.90
75091;DHT22;63674;48.048;8.306;2023-04-03T15:37:55;3.20;99.90
75091;DHT22;63674;48.048;8.306;2023-04-03T15:40:23;3.10;99.90
75091;DHT22;63674;48.048;8.306;2023-04-03T15:42:52;3.10;99.90
75091;DHT22;63674;48.048;8.306;2023-04-03T15:45:21;3.10;99.90
75091;DHT22;63674;48.048;8.306;2023-04-03T15:47:51;3.20;99.90
75091;DHT22;63674;48.048;8.306;2023-04-03T15:50:21;3.10;99.90
75091;DHT22;63674;48.048;8.306;2023-04-03T15:52:51;3.10;99.90
75091;DHT22;63674;48.048;8.306;2023-04-03T15:55:22;3.00;99.90
75091;DHT22;63674;48.048;8.306;2023-04-03T15:57:51;3.00;99.90
75091;DHT22;63674;48.048;8.306;2023-04-03T16:00:20;3.10;99.90
75091;DHT22;63674;48.048;8.306;2023-04-03T16:02:54;3.00;99.90
75091;DHT22;63674;48.048;8.306;2023-04-03T16:05:24;3.00;99.90
75091;DHT22;63674;48.048;8.306;2023-04-03T16:07:53;3.00;99.90
75091;DHT22;63674;48.048;8.306;2023-04-03T16:10:22;2.90;99.90
75091;DHT22;63674;48.048;8.306;2023-04-03T16:12:50;2.90;99.90
75091;DHT22;63674;48.048;8.306;2023-04-03T16:15:19;2.90;99.90
75091;DHT22;63674;48.048;8.306;2023-04-03T16:17:48;2.90;99.90
75091;DHT22;63674;48.048;8.306;2023-04-03T16:20:18;3.00;99.90
75091;DHT22;63674;48.048;8.306;2023-04-03T16:22:49;3.00;99.90
75091;DHT22;63674;48.048;8.306;2023-04-03T16:25:17;3.00;99.90